Keithsburg, Illinois
Current Conditions -  °F | °C
As of 12:35 AM on Thursday 27 Nov 2014 (Local Time) from KMUT Reporting Station
Haze Haze  
Wind Chill: 17°   Ceiling: 2700
Heat Index: 27°   Visibility: 6mi
Dew Point: 25°   Wind: 10mph
Humidity: 93%   Direction: 320°NW
Pressure: 30.32"   Gusts: NA
Location:  41.1°N, 90.94°W
Report Text: KMUT 270635Z AUTO 32009KT 6SM BR OVC027 M03/M04 A3032 RMK AO2
Loading
Personal Weather Stations






























Interactive Weather Map New forecast layout! Learn more

10-Day Weather Forecast

Advertisements
Track Severe Weather on mobile